createdAt,value
2022-12-18T00:00:06.833Z,10.90
2022-12-18T00:05:10.017Z,7.80
2022-12-18T00:10:15.485Z,8.20
2022-12-18T00:15:18.421Z,8.60
2022-12-18T00:20:26.537Z,8.90
2022-12-18T00:25:29.432Z,8.70
2022-12-18T00:30:32.257Z,8.20
2022-12-18T00:35:35.033Z,6.10
2022-12-18T00:40:37.820Z,7.70
2022-12-18T00:45:40.689Z,8.00
2022-12-18T00:50:43.576Z,8.20
2022-12-18T00:55:47.027Z,6.10
2022-12-18T01:00:49.894Z,7.70
2022-12-18T01:05:52.827Z,9.80
2022-12-18T01:10:55.610Z,9.60
2022-12-18T01:15:58.457Z,7.00
2022-12-18T01:21:01.493Z,7.30
2022-12-18T01:26:15.554Z,9.10
2022-12-18T01:31:20.535Z,8.60
2022-12-18T01:36:25.222Z,8.60
2022-12-18T01:41:52.348Z,8.50
2022-12-18T01:46:55.147Z,9.50
2022-12-18T01:51:57.969Z,9.80
2022-12-18T01:57:02.096Z,10.30
2022-12-18T02:02:05.050Z,8.60
2022-12-18T02:07:19.970Z,9.10
2022-12-18T02:12:25.687Z,8.70
2022-12-18T02:17:36.407Z,8.00
2022-12-18T02:22:45.964Z,7.30
2022-12-18T02:27:51.986Z,3.80
2022-12-18T02:32:57.336Z,4.80
2022-12-18T02:38:01.336Z,6.90
2022-12-18T02:43:09.720Z,7.00
2022-12-18T02:48:12.569Z,6.60
2022-12-18T02:53:43.664Z,3.40
2022-12-18T02:59:31.717Z,7.20
2022-12-18T03:05:05.189Z,7.30
2022-12-18T03:10:12.798Z,6.00
2022-12-18T03:15:24.339Z,5.90
2022-12-18T03:20:30.346Z,4.80
2022-12-18T03:25:35.840Z,6.40
2022-12-18T03:30:42.042Z,6.20
2022-12-18T03:35:45.240Z,6.40
2022-12-18T03:40:51.133Z,8.10
2022-12-18T03:46:06.503Z,7.70
2022-12-18T03:51:22.924Z,9.20
2022-12-18T03:56:30.852Z,7.50
2022-12-18T04:01:38.719Z,8.60
2022-12-18T04:06:44.661Z,7.50
2022-12-18T04:11:48.699Z,10.50
2022-12-18T04:16:51.461Z,9.50
2022-12-18T04:21:54.322Z,9.60
2022-12-18T04:26:57.158Z,9.30
2022-12-18T04:32:00.025Z,9.40
2022-12-18T04:37:03.217Z,10.40
2022-12-18T04:42:06.160Z,9.70
2022-12-18T04:47:08.991Z,9.30
2022-12-18T04:52:11.776Z,9.90
2022-12-18T04:57:14.769Z,13.40
2022-12-18T05:02:17.731Z,13.00
2022-12-18T05:07:20.715Z,14.00
2022-12-18T05:12:24.738Z,13.20
2022-12-18T05:17:27.533Z,13.00
2022-12-18T05:22:30.306Z,13.80
2022-12-18T05:27:33.213Z,14.00
2022-12-18T05:32:35.985Z,13.00
2022-12-18T05:37:42.945Z,18.80
2022-12-18T05:42:48.288Z,18.10
2022-12-18T05:47:51.052Z,16.20
2022-12-18T05:52:53.817Z,13.80
2022-12-18T05:57:56.610Z,15.70
2022-12-18T06:03:00.438Z,17.90
2022-12-18T06:08:03.427Z,15.90
2022-12-18T06:13:07.154Z,15.10
2022-12-18T06:18:10.052Z,15.90
2022-12-18T06:23:12.908Z,17.00
2022-12-18T06:28:15.692Z,16.30
2022-12-18T06:33:18.565Z,16.20
2022-12-18T06:38:21.389Z,18.20
2022-12-18T06:43:24.165Z,18.70
2022-12-18T06:48:26.986Z,16.70
2022-12-18T06:53:30.568Z,14.80
2022-12-18T06:58:34.158Z,19.20
2022-12-18T07:03:38.431Z,14.90
2022-12-18T07:08:41.549Z,16.60
2022-12-18T07:13:44.930Z,16.40
2022-12-18T07:18:48.151Z,15.60
2022-12-18T07:23:53.696Z,17.40
2022-12-18T07:28:59.800Z,15.80
2022-12-18T07:34:02.675Z,12.40
2022-12-18T07:39:05.642Z,15.90
2022-12-18T07:44:11.772Z,14.80
2022-12-18T07:49:14.741Z,13.60
2022-12-18T07:54:18.270Z,10.80
2022-12-18T07:59:21.091Z,15.30
2022-12-18T08:04:23.952Z,13.60
2022-12-18T08:09:29.058Z,14.60
2022-12-18T08:14:34.392Z,14.70
2022-12-18T08:19:37.156Z,18.20
2022-12-18T08:24:39.967Z,17.70
2022-12-18T08:29:44.291Z,15.30
2022-12-18T08:34:47.079Z,14.20
2022-12-18T08:39:50.032Z,16.80
2022-12-18T08:44:52.939Z,16.20
2022-12-18T08:49:55.943Z,14.00
2022-12-18T08:54:58.772Z,14.30
2022-12-18T09:00:01.597Z,17.50
2022-12-18T09:05:05.247Z,17.50
2022-12-18T09:10:08.568Z,11.40
2022-12-18T09:15:11.477Z,18.80
2022-12-18T09:20:14.325Z,19.20
2022-12-18T09:25:18.044Z,16.00
2022-12-18T09:30:21.164Z,19.40
2022-12-18T09:35:26.163Z,20.20
2022-12-18T09:40:37.398Z,18.90
2022-12-18T09:45:47.293Z,18.10
2022-12-18T09:50:52.691Z,20.90
2022-12-18T09:55:57.527Z,17.40
2022-12-18T10:01:00.689Z,16.40
2022-12-18T10:06:14.838Z,20.00
2022-12-18T10:11:26.922Z,17.30
2022-12-18T10:16:44.688Z,20.00
2022-12-18T10:22:11.701Z,14.60
2022-12-18T10:27:22.685Z,20.50
2022-12-18T10:32:31.984Z,18.60
2022-12-18T10:37:34.856Z,18.30
2022-12-18T10:42:39.456Z,17.80
2022-12-18T10:47:49.426Z,19.30
2022-12-18T10:53:00.520Z,18.40
2022-12-18T10:58:30.129Z,12.10
2022-12-18T11:03:39.128Z,20.80
2022-12-18T11:08:44.670Z,19.20
2022-12-18T11:14:12.750Z,17.50
2022-12-18T11:19:45.761Z,19.20
2022-12-18T11:25:34.505Z,18.80
2022-12-18T11:30:39.079Z,20.10
2022-12-18T11:35:58.614Z,20.30
2022-12-18T11:41:05.312Z,20.80
2022-12-18T11:46:24.202Z,13.60
2022-12-18T11:51:33.574Z,17.00
2022-12-18T11:56:38.153Z,23.30
2022-12-18T12:01:56.559Z,21.70
2022-12-18T12:07:20.873Z,22.80
2022-12-18T12:12:57.520Z,18.00
2022-12-18T12:18:16.160Z,21.30
2022-12-18T12:23:21.544Z,22.90
2022-12-18T12:28:53.852Z,20.50
2022-12-18T12:34:18.656Z,22.90
2022-12-18T12:39:31.670Z,20.00
2022-12-18T12:44:52.772Z,19.80
2022-12-18T12:50:02.911Z,17.40
2022-12-18T12:55:17.673Z,23.40
2022-12-18T13:00:21.374Z,23.40
2022-12-18T13:05:46.543Z,23.40
2022-12-18T13:11:11.415Z,21.60
2022-12-18T13:16:21.118Z,20.60
2022-12-18T13:21:31.595Z,22.20
2022-12-18T13:26:35.589Z,25.00
2022-12-18T13:31:42.287Z,21.10
2022-12-18T13:36:46.884Z,19.90
2022-12-18T13:41:53.599Z,22.80
2022-12-18T13:46:57.055Z,21.20
2022-12-18T13:52:00.221Z,24.20
2022-12-18T13:57:07.359Z,18.50
2022-12-18T14:02:13.249Z,22.50
2022-12-18T14:12:44.810Z,19.20
2022-12-18T14:18:16.403Z,20.40
2022-12-18T14:23:46.176Z,15.90
2022-12-18T14:28:49.163Z,20.70
2022-12-18T14:33:53.281Z,23.60
2022-12-18T14:39:00.230Z,18.60
2022-12-18T14:49:33.876Z,20.80
2022-12-18T14:54:38.550Z,21.60
2022-12-18T14:59:41.384Z,16.80
2022-12-18T15:04:45.143Z,15.00
2022-12-18T15:10:09.879Z,21.20
2022-12-18T15:15:38.645Z,22.70
2022-12-18T15:21:00.291Z,22.00
2022-12-18T15:26:04.932Z,19.90
2022-12-18T15:31:17.805Z,20.30
2022-12-18T15:36:26.798Z,18.50
2022-12-18T15:41:35.787Z,19.80
2022-12-18T15:46:39.125Z,19.70
2022-12-18T15:51:43.390Z,12.20
2022-12-18T15:57:05.988Z,20.40
2022-12-18T16:02:17.526Z,19.40
2022-12-18T16:07:24.889Z,19.90
2022-12-18T16:12:29.104Z,18.70
2022-12-18T16:17:32.248Z,20.20
2022-12-18T16:22:35.069Z,18.70
2022-12-18T16:27:37.901Z,19.10
2022-12-18T16:32:41.088Z,16.70
2022-12-18T16:37:46.341Z,22.20
2022-12-18T16:42:49.542Z,19.70
2022-12-18T16:47:54.619Z,20.40
2022-12-18T16:52:57.454Z,19.40
2022-12-18T16:58:00.255Z,21.70
2022-12-18T17:03:03.333Z,16.90
2022-12-18T17:08:06.581Z,15.80
2022-12-18T17:13:10.381Z,15.30
2022-12-18T17:18:13.173Z,18.50
2022-12-18T17:23:15.980Z,18.70
2022-12-18T17:28:20.525Z,16.40
2022-12-18T17:33:25.122Z,17.00
2022-12-18T17:38:27.907Z,18.90
2022-12-18T17:43:31.206Z,15.60
2022-12-18T17:48:34.144Z,15.30
2022-12-18T17:53:41.819Z,16.50
2022-12-18T17:58:45.148Z,16.30
2022-12-18T18:03:50.361Z,16.70
2022-12-18T18:08:57.667Z,18.50
2022-12-18T18:14:01.007Z,19.90
2022-12-18T18:19:09.632Z,16.30
2022-12-18T18:24:14.736Z,16.00
2022-12-18T18:29:20.326Z,17.60
2022-12-18T18:34:26.483Z,16.90
2022-12-18T18:39:29.778Z,14.20
2022-12-18T18:44:32.865Z,14.00
2022-12-18T18:49:35.698Z,15.10
2022-12-18T18:54:44.322Z,15.00
2022-12-18T18:59:55.031Z,22.00
2022-12-18T19:04:57.924Z,36.60
2022-12-18T19:10:04.189Z,28.50
2022-12-18T19:15:08.163Z,34.50
2022-12-18T19:20:12.398Z,20.70
2022-12-18T19:25:15.339Z,17.90
2022-12-18T19:30:18.505Z,25.30
2022-12-18T19:35:21.319Z,25.70
2022-12-18T19:40:25.186Z,18.20
2022-12-18T19:45:29.093Z,15.20
2022-12-18T19:50:32.169Z,17.20
2022-12-18T19:55:42.019Z,16.30
2022-12-18T20:00:48.095Z,17.20
2022-12-18T20:05:50.934Z,17.50
2022-12-18T20:10:54.149Z,18.60
2022-12-18T20:15:57.565Z,20.30
2022-12-18T20:21:05.504Z,17.90
2022-12-18T20:26:10.139Z,28.70
2022-12-18T20:31:14.158Z,21.50
2022-12-18T20:42:12.946Z,20.30
2022-12-18T20:47:16.212Z,21.00
2022-12-18T20:52:19.147Z,16.80
2022-12-18T20:57:23.206Z,16.20
2022-12-18T21:02:26.089Z,14.60
2022-12-18T21:07:29.189Z,18.40
2022-12-18T21:12:40.223Z,17.30
2022-12-18T21:17:51.110Z,17.10
2022-12-18T21:22:54.071Z,18.40
2022-12-18T21:28:00.287Z,18.30
2022-12-18T21:33:03.538Z,32.90
2022-12-18T21:38:06.385Z,25.10
2022-12-18T21:43:29.209Z,16.80
2022-12-18T21:48:32.142Z,20.20
2022-12-18T21:53:34.923Z,18.70
2022-12-18T21:58:37.671Z,20.80
2022-12-18T22:03:40.636Z,21.60
2022-12-18T22:08:44.111Z,17.30
2022-12-18T22:18:53.769Z,20.30
2022-12-18T22:24:01.852Z,17.70
2022-12-18T22:29:24.557Z,22.30
2022-12-18T22:34:28.836Z,29.40
2022-12-18T22:39:33.147Z,20.70
2022-12-18T22:44:36.514Z,21.80
2022-12-18T22:49:39.679Z,18.20
2022-12-18T22:54:42.487Z,24.00
2022-12-18T22:59:45.365Z,25.10
2022-12-18T23:04:48.200Z,18.00
2022-12-18T23:09:51.377Z,17.10
2022-12-18T23:15:02.353Z,15.30
2022-12-18T23:20:07.249Z,14.30
2022-12-18T23:25:10.103Z,13.50
2022-12-18T23:30:13.454Z,13.60
2022-12-18T23:35:17.898Z,16.20
2022-12-18T23:40:20.700Z,13.30
2022-12-18T23:45:23.907Z,17.50
2022-12-18T23:50:29.457Z,13.30
2022-12-18T23:55:38.740Z,15.70
